sensor_id;sensor_type;location;lat;lon;timestamp;P1;durP1;ratioP1;P2;durP2;ratioP2
14754;SDS011;7469;50.906;6.952;2024-01-30T00:02:25;14.07;;;8.73;;
14754;SDS011;7469;50.906;6.952;2024-01-30T00:04:53;13.07;;;8.80;;
14754;SDS011;7469;50.906;6.952;2024-01-30T00:07:21;13.37;;;9.63;;
14754;SDS011;7469;50.906;6.952;2024-01-30T00:09:49;14.17;;;9.00;;
14754;SDS011;7469;50.906;6.952;2024-01-30T00:12:17;12.63;;;8.87;;
14754;SDS011;7469;50.906;6.952;2024-01-30T00:14:47;13.13;;;8.37;;
14754;SDS011;7469;50.906;6.952;2024-01-30T00:17:20;14.93;;;9.13;;
14754;SDS011;7469;50.906;6.952;2024-01-30T00:19:48;16.53;;;9.23;;
14754;SDS011;7469;50.906;6.952;2024-01-30T00:22:16;12.33;;;8.77;;
14754;SDS011;7469;50.906;6.952;2024-01-30T00:24:44;14.13;;;9.27;;
14754;SDS011;7469;50.906;6.952;2024-01-30T00:27:12;13.07;;;9.03;;
14754;SDS011;7469;50.906;6.952;2024-01-30T00:29:40;14.50;;;8.83;;
14754;SDS011;7469;50.906;6.952;2024-01-30T00:32:09;11.90;;;9.17;;
14754;SDS011;7469;50.906;6.952;2024-01-30T00:34:37;13.17;;;8.97;;
14754;SDS011;7469;50.906;6.952;2024-01-30T00:37:05;11.33;;;8.87;;
14754;SDS011;7469;50.906;6.952;2024-01-30T00:39:33;13.37;;;9.43;;
14754;SDS011;7469;50.906;6.952;2024-01-30T00:42:01;13.03;;;9.33;;
14754;SDS011;7469;50.906;6.952;2024-01-30T00:44:29;14.00;;;9.00;;
14754;SDS011;7469;50.906;6.952;2024-01-30T00:46:57;12.67;;;9.30;;
14754;SDS011;7469;50.906;6.952;2024-01-30T00:49:26;13.10;;;9.10;;
14754;SDS011;7469;50.906;6.952;2024-01-30T00:51:54;14.57;;;8.50;;
14754;SDS011;7469;50.906;6.952;2024-01-30T00:54:22;13.10;;;8.97;;
14754;SDS011;7469;50.906;6.952;2024-01-30T00:56:50;16.70;;;9.13;;
14754;SDS011;7469;50.906;6.952;2024-01-30T00:59:18;12.23;;;9.40;;
14754;SDS011;7469;50.906;6.952;2024-01-30T01:01:46;13.27;;;8.57;;
14754;SDS011;7469;50.906;6.952;2024-01-30T01:04:14;13.10;;;9.60;;
14754;SDS011;7469;50.906;6.952;2024-01-30T01:06:43;13.77;;;9.20;;
14754;SDS011;7469;50.906;6.952;2024-01-30T01:09:11;14.50;;;10.23;;
14754;SDS011;7469;50.906;6.952;2024-01-30T01:11:39;14.17;;;9.77;;
14754;SDS011;7469;50.906;6.952;2024-01-30T01:14:07;15.13;;;10.20;;
14754;SDS011;7469;50.906;6.952;2024-01-30T01:16:35;12.57;;;9.17;;
14754;SDS011;7469;50.906;6.952;2024-01-30T01:19:03;16.90;;;10.27;;
14754;SDS011;7469;50.906;6.952;2024-01-30T01:21:32;12.50;;;9.30;;
14754;SDS011;7469;50.906;6.952;2024-01-30T01:24:01;13.80;;;9.40;;
14754;SDS011;7469;50.906;6.952;2024-01-30T01:26:29;12.73;;;8.80;;
14754;SDS011;7469;50.906;6.952;2024-01-30T01:28:57;12.57;;;9.40;;
14754;SDS011;7469;50.906;6.952;2024-01-30T01:31:25;11.53;;;8.87;;
14754;SDS011;7469;50.906;6.952;2024-01-30T01:33:56;15.70;;;9.27;;
14754;SDS011;7469;50.906;6.952;2024-01-30T01:36:24;14.80;;;8.97;;
14754;SDS011;7469;50.906;6.952;2024-01-30T01:38:52;12.87;;;9.23;;
14754;SDS011;7469;50.906;6.952;2024-01-30T01:41:21;15.23;;;8.73;;
14754;SDS011;7469;50.906;6.952;2024-01-30T01:43:49;15.83;;;8.50;;
14754;SDS011;7469;50.906;6.952;2024-01-30T01:46:17;12.23;;;8.70;;
14754;SDS011;7469;50.906;6.952;2024-01-30T01:48:45;13.17;;;8.67;;
14754;SDS011;7469;50.906;6.952;2024-01-30T01:51:13;11.70;;;8.17;;
14754;SDS011;7469;50.906;6.952;2024-01-30T01:53:43;11.47;;;8.53;;
14754;SDS011;7469;50.906;6.952;2024-01-30T01:56:11;14.57;;;8.80;;
14754;SDS011;7469;50.906;6.952;2024-01-30T01:58:41;11.17;;;8.43;;
14754;SDS011;7469;50.906;6.952;2024-01-30T02:01:09;13.77;;;8.77;;
14754;SDS011;7469;50.906;6.952;2024-01-30T02:03:38;9.77;;;8.17;;
14754;SDS011;7469;50.906;6.952;2024-01-30T02:06:07;15.43;;;9.07;;
14754;SDS011;7469;50.906;6.952;2024-01-30T02:08:35;11.87;;;8.10;;
14754;SDS011;7469;50.906;6.952;2024-01-30T02:11:05;12.03;;;8.67;;
14754;SDS011;7469;50.906;6.952;2024-01-30T02:13:33;13.03;;;8.97;;
14754;SDS011;7469;50.906;6.952;2024-01-30T02:16:02;13.03;;;9.17;;
14754;SDS011;7469;50.906;6.952;2024-01-30T02:18:31;10.77;;;7.80;;
14754;SDS011;7469;50.906;6.952;2024-01-30T02:20:59;16.27;;;9.10;;
14754;SDS011;7469;50.906;6.952;2024-01-30T02:23:32;10.07;;;7.80;;
14754;SDS011;7469;50.906;6.952;2024-01-30T02:26:01;12.87;;;8.83;;
14754;SDS011;7469;50.906;6.952;2024-01-30T02:28:29;12.47;;;8.53;;
14754;SDS011;7469;50.906;6.952;2024-01-30T02:30:57;15.03;;;8.40;;
14754;SDS011;7469;50.906;6.952;2024-01-30T02:33:25;14.43;;;8.83;;
14754;SDS011;7469;50.906;6.952;2024-01-30T02:35:53;9.27;;;7.93;;
14754;SDS011;7469;50.906;6.952;2024-01-30T02:38:22;11.93;;;8.43;;
14754;SDS011;7469;50.906;6.952;2024-01-30T02:40:50;11.63;;;8.60;;
14754;SDS011;7469;50.906;6.952;2024-01-30T02:43:18;12.50;;;8.73;;
14754;SDS011;7469;50.906;6.952;2024-01-30T02:45:46;16.63;;;9.47;;
14754;SDS011;7469;50.906;6.952;2024-01-30T02:48:14;11.37;;;8.20;;
14754;SDS011;7469;50.906;6.952;2024-01-30T02:50:42;11.40;;;8.40;;
14754;SDS011;7469;50.906;6.952;2024-01-30T02:53:10;12.17;;;7.73;;
14754;SDS011;7469;50.906;6.952;2024-01-30T02:55:40;11.53;;;8.37;;
14754;SDS011;7469;50.906;6.952;2024-01-30T02:58:08;11.27;;;8.40;;
14754;SDS011;7469;50.906;6.952;2024-01-30T03:00:36;13.03;;;8.07;;
14754;SDS011;7469;50.906;6.952;2024-01-30T03:03:04;11.90;;;8.60;;
14754;SDS011;7469;50.906;6.952;2024-01-30T03:05:32;10.63;;;8.53;;
14754;SDS011;7469;50.906;6.952;2024-01-30T03:08:00;10.83;;;8.77;;
14754;SDS011;7469;50.906;6.952;2024-01-30T03:10:28;13.43;;;8.27;;
14754;SDS011;7469;50.906;6.952;2024-01-30T03:12:57;13.80;;;8.10;;
14754;SDS011;7469;50.906;6.952;2024-01-30T03:15:25;12.40;;;8.20;;
14754;SDS011;7469;50.906;6.952;2024-01-30T03:17:53;11.10;;;8.47;;
14754;SDS011;7469;50.906;6.952;2024-01-30T03:20:21;14.80;;;8.40;;
14754;SDS011;7469;50.906;6.952;2024-01-30T03:22:49;10.27;;;7.93;;
14754;SDS011;7469;50.906;6.952;2024-01-30T03:25:17;12.13;;;8.10;;
14754;SDS011;7469;50.906;6.952;2024-01-30T03:27:45;13.67;;;8.87;;
14754;SDS011;7469;50.906;6.952;2024-01-30T03:30:15;10.33;;;8.30;;
14754;SDS011;7469;50.906;6.952;2024-01-30T03:32:43;13.50;;;8.63;;
14754;SDS011;7469;50.906;6.952;2024-01-30T03:35:11;10.70;;;8.43;;
14754;SDS011;7469;50.906;6.952;2024-01-30T03:37:39;13.07;;;8.23;;
14754;SDS011;7469;50.906;6.952;2024-01-30T03:40:07;12.47;;;8.53;;
14754;SDS011;7469;50.906;6.952;2024-01-30T03:42:36;12.53;;;8.60;;
14754;SDS011;7469;50.906;6.952;2024-01-30T03:45:04;11.83;;;7.93;;
14754;SDS011;7469;50.906;6.952;2024-01-30T03:47:34;14.37;;;8.17;;
14754;SDS011;7469;50.906;6.952;2024-01-30T03:50:02;10.60;;;8.17;;
14754;SDS011;7469;50.906;6.952;2024-01-30T03:52:31;16.53;;;8.73;;
14754;SDS011;7469;50.906;6.952;2024-01-30T03:54:59;14.23;;;8.10;;
14754;SDS011;7469;50.906;6.952;2024-01-30T03:57:27;11.73;;;8.77;;
14754;SDS011;7469;50.906;6.952;2024-01-30T03:59:55;11.30;;;7.80;;
14754;SDS011;7469;50.906;6.952;2024-01-30T04:02:26;9.67;;;8.10;;
14754;SDS011;7469;50.906;6.952;2024-01-30T04:04:55;12.33;;;8.43;;
14754;SDS011;7469;50.906;6.952;2024-01-30T04:07:23;12.43;;;8.50;;
14754;SDS011;7469;50.906;6.952;2024-01-30T04:09:51;10.67;;;8.23;;
14754;SDS011;7469;50.906;6.952;2024-01-30T04:12:19;15.07;;;8.13;;
14754;SDS011;7469;50.906;6.952;2024-01-30T04:14:47;13.13;;;8.30;;
14754;SDS011;7469;50.906;6.952;2024-01-30T04:17:15;11.20;;;8.43;;
14754;SDS011;7469;50.906;6.952;2024-01-30T04:19:43;12.87;;;8.83;;
14754;SDS011;7469;50.906;6.952;2024-01-30T04:22:12;11.20;;;8.03;;
14754;SDS011;7469;50.906;6.952;2024-01-30T04:24:40;11.50;;;8.43;;
14754;SDS011;7469;50.906;6.952;2024-01-30T04:27:08;14.20;;;8.70;;
14754;SDS011;7469;50.906;6.952;2024-01-30T04:29:36;11.37;;;7.67;;
14754;SDS011;7469;50.906;6.952;2024-01-30T04:32:04;12.57;;;7.87;;
14754;SDS011;7469;50.906;6.952;2024-01-30T04:34:33;10.80;;;8.03;;
14754;SDS011;7469;50.906;6.952;2024-01-30T04:37:01;11.83;;;7.97;;
14754;SDS011;7469;50.906;6.952;2024-01-30T04:39:30;14.67;;;8.17;;
14754;SDS011;7469;50.906;6.952;2024-01-30T04:42:00;10.97;;;7.73;;
14754;SDS011;7469;50.906;6.952;2024-01-30T04:44:31;11.30;;;7.93;;
14754;SDS011;7469;50.906;6.952;2024-01-30T04:46:59;12.43;;;7.30;;
14754;SDS011;7469;50.906;6.952;2024-01-30T04:49:27;12.77;;;7.40;;
14754;SDS011;7469;50.906;6.952;2024-01-30T04:51:56;12.43;;;7.77;;
14754;SDS011;7469;50.906;6.952;2024-01-30T04:54:25;12.27;;;7.67;;
14754;SDS011;7469;50.906;6.952;2024-01-30T04:56:54;14.47;;;8.47;;
14754;SDS011;7469;50.906;6.952;2024-01-30T04:59:22;12.40;;;7.80;;
14754;SDS011;7469;50.906;6.952;2024-01-30T05:01:50;13.17;;;8.87;;
14754;SDS011;7469;50.906;6.952;2024-01-30T05:04:18;9.40;;;7.90;;
14754;SDS011;7469;50.906;6.952;2024-01-30T05:06:46;14.80;;;8.00;;
14754;SDS011;7469;50.906;6.952;2024-01-30T05:09:14;11.07;;;7.40;;
14754;SDS011;7469;50.906;6.952;2024-01-30T05:11:42;13.30;;;7.97;;
14754;SDS011;7469;50.906;6.952;2024-01-30T05:14:11;15.63;;;8.70;;
14754;SDS011;7469;50.906;6.952;2024-01-30T05:16:41;10.20;;;8.17;;
14754;SDS011;7469;50.906;6.952;2024-01-30T05:19:13;12.20;;;8.20;;
14754;SDS011;7469;50.906;6.952;2024-01-30T05:21:41;14.80;;;8.27;;
14754;SDS011;7469;50.906;6.952;2024-01-30T05:24:10;12.43;;;8.17;;
14754;SDS011;7469;50.906;6.952;2024-01-30T05:26:38;13.57;;;8.10;;
14754;SDS011;7469;50.906;6.952;2024-01-30T05:29:06;13.57;;;8.50;;
14754;SDS011;7469;50.906;6.952;2024-01-30T05:31:35;13.63;;;8.03;;
14754;SDS011;7469;50.906;6.952;2024-01-30T05:34:03;10.90;;;8.10;;
14754;SDS011;7469;50.906;6.952;2024-01-30T05:36:33;13.17;;;8.53;;
14754;SDS011;7469;50.906;6.952;2024-01-30T05:39:01;11.63;;;8.37;;
14754;SDS011;7469;50.906;6.952;2024-01-30T05:41:32;15.40;;;9.13;;
14754;SDS011;7469;50.906;6.952;2024-01-30T05:44:00;14.10;;;8.20;;
14754;SDS011;7469;50.906;6.952;2024-01-30T05:46:28;13.77;;;8.50;;
14754;SDS011;7469;50.906;6.952;2024-01-30T05:48:57;13.43;;;9.03;;
14754;SDS011;7469;50.906;6.952;2024-01-30T05:51:25;12.90;;;8.27;;
14754;SDS011;7469;50.906;6.952;2024-01-30T05:53:54;13.93;;;8.67;;
14754;SDS011;7469;50.906;6.952;2024-01-30T05:56:22;15.17;;;8.73;;
14754;SDS011;7469;50.906;6.952;2024-01-30T05:58:50;14.17;;;8.70;;
14754;SDS011;7469;50.906;6.952;2024-01-30T06:01:18;14.03;;;8.83;;
14754;SDS011;7469;50.906;6.952;2024-01-30T06:03:46;14.90;;;9.47;;
14754;SDS011;7469;50.906;6.952;2024-01-30T06:06:15;15.07;;;8.70;;
14754;SDS011;7469;50.906;6.952;2024-01-30T06:08:44;15.77;;;9.17;;
14754;SDS011;7469;50.906;6.952;2024-01-30T06:11:12;10.60;;;8.70;;
14754;SDS011;7469;50.906;6.952;2024-01-30T06:13:40;11.53;;;8.13;;
14754;SDS011;7469;50.906;6.952;2024-01-30T06:16:09;13.83;;;8.87;;
14754;SDS011;7469;50.906;6.952;2024-01-30T06:18:38;11.03;;;7.80;;
14754;SDS011;7469;50.906;6.952;2024-01-30T06:21:06;12.13;;;8.83;;
14754;SDS011;7469;50.906;6.952;2024-01-30T06:23:38;12.83;;;8.63;;
14754;SDS011;7469;50.906;6.952;2024-01-30T06:26:06;11.17;;;8.57;;
14754;SDS011;7469;50.906;6.952;2024-01-30T06:28:34;12.90;;;9.37;;
14754;SDS011;7469;50.906;6.952;2024-01-30T06:31:02;10.57;;;8.03;;
14754;SDS011;7469;50.906;6.952;2024-01-30T06:33:31;13.27;;;8.97;;
14754;SDS011;7469;50.906;6.952;2024-01-30T06:35:59;13.23;;;8.73;;
14754;SDS011;7469;50.906;6.952;2024-01-30T06:38:27;11.60;;;9.23;;
14754;SDS011;7469;50.906;6.952;2024-01-30T06:40:56;15.23;;;8.60;;
14754;SDS011;7469;50.906;6.952;2024-01-30T06:43:24;13.93;;;9.47;;
14754;SDS011;7469;50.906;6.952;2024-01-30T06:45:52;12.43;;;8.87;;
14754;SDS011;7469;50.906;6.952;2024-01-30T06:48:20;11.43;;;9.03;;
14754;SDS011;7469;50.906;6.952;2024-01-30T06:50:48;12.70;;;8.83;;
14754;SDS011;7469;50.906;6.952;2024-01-30T06:53:17;15.13;;;9.47;;
14754;SDS011;7469;50.906;6.952;2024-01-30T06:55:44;17.50;;;9.50;;
14754;SDS011;7469;50.906;6.952;2024-01-30T06:58:14;12.20;;;8.83;;
14754;SDS011;7469;50.906;6.952;2024-01-30T07:00:42;13.33;;;9.73;;
14754;SDS011;7469;50.906;6.952;2024-01-30T07:03:10;13.27;;;8.40;;
14754;SDS011;7469;50.906;6.952;2024-01-30T07:05:38;15.07;;;9.20;;
14754;SDS011;7469;50.906;6.952;2024-01-30T07:08:06;13.17;;;9.57;;
14754;SDS011;7469;50.906;6.952;2024-01-30T07:10:34;11.20;;;8.40;;
14754;SDS011;7469;50.906;6.952;2024-01-30T07:13:02;10.87;;;8.60;;
14754;SDS011;7469;50.906;6.952;2024-01-30T07:15:33;13.63;;;9.17;;
14754;SDS011;7469;50.906;6.952;2024-01-30T07:18:03;10.50;;;8.60;;
14754;SDS011;7469;50.906;6.952;2024-01-30T07:20:31;22.33;;;9.53;;
14754;SDS011;7469;50.906;6.952;2024-01-30T07:23:00;13.53;;;8.73;;
14754;SDS011;7469;50.906;6.952;2024-01-30T07:25:28;13.47;;;9.10;;
14754;SDS011;7469;50.906;6.952;2024-01-30T07:27:56;13.33;;;8.90;;
14754;SDS011;7469;50.906;6.952;2024-01-30T07:30:25;16.53;;;8.90;;
14754;SDS011;7469;50.906;6.952;2024-01-30T07:32:54;17.40;;;9.33;;
14754;SDS011;7469;50.906;6.952;2024-01-30T07:35:22;11.73;;;8.00;;
14754;SDS011;7469;50.906;6.952;2024-01-30T07:37:50;11.67;;;9.00;;
14754;SDS011;7469;50.906;6.952;2024-01-30T07:40:18;14.10;;;9.10;;
14754;SDS011;7469;50.906;6.952;2024-01-30T07:42:47;14.43;;;9.10;;
14754;SDS011;7469;50.906;6.952;2024-01-30T07:45:16;12.13;;;8.47;;
14754;SDS011;7469;50.906;6.952;2024-01-30T07:47:48;16.37;;;8.97;;
14754;SDS011;7469;50.906;6.952;2024-01-30T07:50:17;15.27;;;8.83;;
14754;SDS011;7469;50.906;6.952;2024-01-30T07:52:46;15.83;;;8.80;;
14754;SDS011;7469;50.906;6.952;2024-01-30T07:55:17;9.87;;;8.37;;
14754;SDS011;7469;50.906;6.952;2024-01-30T07:57:46;14.87;;;8.67;;
14754;SDS011;7469;50.906;6.952;2024-01-30T08:00:17;14.20;;;8.70;;
14754;SDS011;7469;50.906;6.952;2024-01-30T08:02:46;11.00;;;8.33;;
14754;SDS011;7469;50.906;6.952;2024-01-30T08:05:14;10.63;;;8.37;;
14754;SDS011;7469;50.906;6.952;2024-01-30T08:07:44;11.60;;;8.47;;
14754;SDS011;7469;50.906;6.952;2024-01-30T08:10:12;14.50;;;9.03;;
14754;SDS011;7469;50.906;6.952;2024-01-30T08:12:40;10.40;;;7.63;;
14754;SDS011;7469;50.906;6.952;2024-01-30T08:15:09;12.10;;;8.43;;
14754;SDS011;7469;50.906;6.952;2024-01-30T08:17:38;12.63;;;8.77;;
14754;SDS011;7469;50.906;6.952;2024-01-30T08:20:06;13.80;;;9.13;;
14754;SDS011;7469;50.906;6.952;2024-01-30T08:22:38;12.50;;;8.73;;
14754;SDS011;7469;50.906;6.952;2024-01-30T08:25:08;12.70;;;8.27;;
14754;SDS011;7469;50.906;6.952;2024-01-30T08:27:37;11.27;;;7.47;;
14754;SDS011;7469;50.906;6.952;2024-01-30T08:30:05;15.17;;;8.90;;
14754;SDS011;7469;50.906;6.952;2024-01-30T08:32:34;14.37;;;8.87;;
14754;SDS011;7469;50.906;6.952;2024-01-30T08:35:02;14.00;;;8.87;;
14754;SDS011;7469;50.906;6.952;2024-01-30T08:37:31;11.90;;;9.13;;
14754;SDS011;7469;50.906;6.952;2024-01-30T08:39:59;12.63;;;8.87;;
14754;SDS011;7469;50.906;6.952;2024-01-30T08:42:30;15.07;;;8.43;;
14754;SDS011;7469;50.906;6.952;2024-01-30T08:44:58;13.70;;;8.00;;
14754;SDS011;7469;50.906;6.952;2024-01-30T08:47:25;16.50;;;9.03;;
14754;SDS011;7469;50.906;6.952;2024-01-30T08:49:54;12.07;;;8.07;;
14754;SDS011;7469;50.906;6.952;2024-01-30T08:52:22;13.67;;;8.53;;
14754;SDS011;7469;50.906;6.952;2024-01-30T08:54:50;13.57;;;8.43;;
14754;SDS011;7469;50.906;6.952;2024-01-30T08:57:18;17.17;;;9.40;;
14754;SDS011;7469;50.906;6.952;2024-01-30T08:59:47;12.00;;;8.50;;
14754;SDS011;7469;50.906;6.952;2024-01-30T09:02:15;12.57;;;8.90;;
14754;SDS011;7469;50.906;6.952;2024-01-30T09:04:44;15.23;;;8.77;;
14754;SDS011;7469;50.906;6.952;2024-01-30T09:07:12;12.63;;;9.03;;
14754;SDS011;7469;50.906;6.952;2024-01-30T09:09:41;12.33;;;8.47;;
14754;SDS011;7469;50.906;6.952;2024-01-30T09:12:09;10.23;;;8.00;;
14754;SDS011;7469;50.906;6.952;2024-01-30T09:14:38;14.47;;;8.43;;
14754;SDS011;7469;50.906;6.952;2024-01-30T09:17:09;10.50;;;8.60;;
14754;SDS011;7469;50.906;6.952;2024-01-30T09:19:37;12.20;;;8.53;;
14754;SDS011;7469;50.906;6.952;2024-01-30T09:22:05;14.53;;;8.37;;
14754;SDS011;7469;50.906;6.952;2024-01-30T09:24:33;11.87;;;9.00;;
14754;SDS011;7469;50.906;6.952;2024-01-30T09:27:01;14.80;;;8.57;;
14754;SDS011;7469;50.906;6.952;2024-01-30T09:29:29;12.50;;;9.03;;
14754;SDS011;7469;50.906;6.952;2024-01-30T09:31:57;17.67;;;8.73;;
14754;SDS011;7469;50.906;6.952;2024-01-30T09:34:26;14.43;;;8.50;;
14754;SDS011;7469;50.906;6.952;2024-01-30T09:36:54;11.77;;;7.80;;
14754;SDS011;7469;50.906;6.952;2024-01-30T09:39:22;10.23;;;7.60;;
14754;SDS011;7469;50.906;6.952;2024-01-30T09:41:53;11.80;;;8.50;;
14754;SDS011;7469;50.906;6.952;2024-01-30T09:44:29;13.93;;;8.47;;
14754;SDS011;7469;50.906;6.952;2024-01-30T09:46:58;13.27;;;8.27;;
14754;SDS011;7469;50.906;6.952;2024-01-30T09:49:31;12.77;;;7.60;;
14754;SDS011;7469;50.906;6.952;2024-01-30T09:52:00;13.83;;;8.27;;
14754;SDS011;7469;50.906;6.952;2024-01-30T09:54:29;11.73;;;7.50;;
14754;SDS011;7469;50.906;6.952;2024-01-30T09:57:02;11.67;;;7.90;;
14754;SDS011;7469;50.906;6.952;2024-01-30T09:59:31;10.63;;;7.63;;
14754;SDS011;7469;50.906;6.952;2024-01-30T10:02:00;11.93;;;7.93;;
14754;SDS011;7469;50.906;6.952;2024-01-30T10:04:31;13.40;;;8.10;;
14754;SDS011;7469;50.906;6.952;2024-01-30T10:07:01;11.57;;;8.40;;
14754;SDS011;7469;50.906;6.952;2024-01-30T10:09:31;10.77;;;7.87;;
14754;SDS011;7469;50.906;6.952;2024-01-30T10:12:00;12.67;;;7.97;;
14754;SDS011;7469;50.906;6.952;2024-01-30T10:14:30;14.27;;;8.27;;
14754;SDS011;7469;50.906;6.952;2024-01-30T10:16:58;11.73;;;7.90;;
14754;SDS011;7469;50.906;6.952;2024-01-30T10:19:26;15.27;;;7.93;;
14754;SDS011;7469;50.906;6.952;2024-01-30T10:21:56;10.50;;;7.90;;
14754;SDS011;7469;50.906;6.952;2024-01-30T10:24:24;14.70;;;8.67;;
14754;SDS011;7469;50.906;6.952;2024-01-30T10:26:52;12.03;;;8.20;;
14754;SDS011;7469;50.906;6.952;2024-01-30T10:29:20;10.70;;;7.83;;
14754;SDS011;7469;50.906;6.952;2024-01-30T10:31:57;9.50;;;7.87;;
14754;SDS011;7469;50.906;6.952;2024-01-30T10:34:25;10.47;;;7.63;;
14754;SDS011;7469;50.906;6.952;2024-01-30T10:36:59;9.93;;;7.73;;
14754;SDS011;7469;50.906;6.952;2024-01-30T10:39:32;12.90;;;8.17;;
14754;SDS011;7469;50.906;6.952;2024-01-30T10:42:05;12.73;;;8.20;;
14754;SDS011;7469;50.906;6.952;2024-01-30T10:44:39;11.93;;;8.03;;
14754;SDS011;7469;50.906;6.952;2024-01-30T10:47:13;11.63;;;7.60;;
14754;SDS011;7469;50.906;6.952;2024-01-30T10:49:47;15.87;;;8.30;;
14754;SDS011;7469;50.906;6.952;2024-01-30T10:52:17;11.57;;;8.47;;
14754;SDS011;7469;50.906;6.952;2024-01-30T10:54:46;11.97;;;7.83;;
14754;SDS011;7469;50.906;6.952;2024-01-30T10:57:16;12.13;;;7.77;;
14754;SDS011;7469;50.906;6.952;2024-01-30T10:59:45;13.53;;;8.43;;
14754;SDS011;7469;50.906;6.952;2024-01-30T11:02:14;13.80;;;8.57;;
14754;SDS011;7469;50.906;6.952;2024-01-30T11:04:42;11.07;;;8.03;;
14754;SDS011;7469;50.906;6.952;2024-01-30T11:07:14;12.87;;;7.63;;
14754;SDS011;7469;50.906;6.952;2024-01-30T11:09:50;12.27;;;7.30;;
14754;SDS011;7469;50.906;6.952;2024-01-30T11:12:21;12.27;;;7.30;;
14754;SDS011;7469;50.906;6.952;2024-01-30T11:14:50;10.23;;;7.70;;
14754;SDS011;7469;50.906;6.952;2024-01-30T11:17:39;13.83;;;7.50;;
14754;SDS011;7469;50.906;6.952;2024-01-30T11:20:11;11.03;;;6.80;;
14754;SDS011;7469;50.906;6.952;2024-01-30T11:22:42;10.43;;;7.00;;
14754;SDS011;7469;50.906;6.952;2024-01-30T11:25:14;11.70;;;6.77;;
14754;SDS011;7469;50.906;6.952;2024-01-30T11:27:43;12.63;;;7.00;;
14754;SDS011;7469;50.906;6.952;2024-01-30T11:30:20;10.83;;;7.17;;
14754;SDS011;7469;50.906;6.952;2024-01-30T11:32:57;10.13;;;6.80;;
14754;SDS011;7469;50.906;6.952;2024-01-30T11:35:28;10.07;;;7.20;;
14754;SDS011;7469;50.906;6.952;2024-01-30T11:37:58;11.33;;;7.17;;
14754;SDS011;7469;50.906;6.952;2024-01-30T11:40:28;11.10;;;7.40;;
14754;SDS011;7469;50.906;6.952;2024-01-30T11:42:58;12.40;;;7.13;;
14754;SDS011;7469;50.906;6.952;2024-01-30T11:45:27;12.27;;;7.50;;
14754;SDS011;7469;50.906;6.952;2024-01-30T11:47:55;10.67;;;7.30;;
14754;SDS011;7469;50.906;6.952;2024-01-30T11:50:26;14.13;;;7.03;;
14754;SDS011;7469;50.906;6.952;2024-01-30T11:52:54;13.67;;;6.80;;
14754;SDS011;7469;50.906;6.952;2024-01-30T11:55:23;9.50;;;6.40;;
14754;SDS011;7469;50.906;6.952;2024-01-30T11:57:56;10.83;;;6.30;;
14754;SDS011;7469;50.906;6.952;2024-01-30T12:00:24;11.07;;;6.93;;
14754;SDS011;7469;50.906;6.952;2024-01-30T12:02:53;11.17;;;6.20;;
14754;SDS011;7469;50.906;6.952;2024-01-30T12:05:23;10.03;;;6.40;;
14754;SDS011;7469;50.906;6.952;2024-01-30T12:07:52;9.23;;;6.57;;
14754;SDS011;7469;50.906;6.952;2024-01-30T12:10:21;10.40;;;6.67;;
14754;SDS011;7469;50.906;6.952;2024-01-30T12:12:49;9.57;;;6.30;;
14754;SDS011;7469;50.906;6.952;2024-01-30T12:15:20;11.07;;;6.23;;
14754;SDS011;7469;50.906;6.952;2024-01-30T12:17:49;9.90;;;6.13;;
14754;SDS011;7469;50.906;6.952;2024-01-30T12:20:18;9.60;;;6.57;;
14754;SDS011;7469;50.906;6.952;2024-01-30T12:22:48;8.57;;;5.83;;
14754;SDS011;7469;50.906;6.952;2024-01-30T12:25:18;9.93;;;6.80;;
14754;SDS011;7469;50.906;6.952;2024-01-30T12:27:49;11.93;;;6.33;;
14754;SDS011;7469;50.906;6.952;2024-01-30T12:30:20;12.67;;;6.97;;
14754;SDS011;7469;50.906;6.952;2024-01-30T12:32:49;10.13;;;6.87;;
14754;SDS011;7469;50.906;6.952;2024-01-30T12:35:18;13.47;;;6.73;;
14754;SDS011;7469;50.906;6.952;2024-01-30T12:37:48;17.13;;;7.20;;
14754;SDS011;7469;50.906;6.952;2024-01-30T12:40:17;13.07;;;6.57;;
14754;SDS011;7469;50.906;6.952;2024-01-30T12:42:45;10.03;;;6.80;;
14754;SDS011;7469;50.906;6.952;2024-01-30T12:45:15;11.57;;;6.50;;
14754;SDS011;7469;50.906;6.952;2024-01-30T12:47:47;9.03;;;5.77;;
14754;SDS011;7469;50.906;6.952;2024-01-30T12:50:16;11.23;;;7.00;;
14754;SDS011;7469;50.906;6.952;2024-01-30T12:52:44;13.17;;;6.67;;
14754;SDS011;7469;50.906;6.952;2024-01-30T12:55:15;10.97;;;6.40;;
14754;SDS011;7469;50.906;6.952;2024-01-30T12:57:44;10.40;;;6.63;;
14754;SDS011;7469;50.906;6.952;2024-01-30T13:00:12;12.27;;;7.43;;
14754;SDS011;7469;50.906;6.952;2024-01-30T13:02:40;14.20;;;7.13;;
14754;SDS011;7469;50.906;6.952;2024-01-30T13:05:12;13.00;;;6.83;;
14754;SDS011;7469;50.906;6.952;2024-01-30T13:07:41;9.67;;;6.17;;
14754;SDS011;7469;50.906;6.952;2024-01-30T13:10:09;11.97;;;6.90;;
14754;SDS011;7469;50.906;6.952;2024-01-30T13:12:37;14.13;;;7.53;;
14754;SDS011;7469;50.906;6.952;2024-01-30T13:15:05;18.17;;;6.97;;
14754;SDS011;7469;50.906;6.952;2024-01-30T13:17:34;11.53;;;6.67;;
14754;SDS011;7469;50.906;6.952;2024-01-30T13:20:02;13.27;;;7.10;;
14754;SDS011;7469;50.906;6.952;2024-01-30T13:22:38;10.83;;;6.63;;
14754;SDS011;7469;50.906;6.952;2024-01-30T13:25:07;17.53;;;6.47;;
14754;SDS011;7469;50.906;6.952;2024-01-30T13:27:35;14.60;;;6.80;;
14754;SDS011;7469;50.906;6.952;2024-01-30T13:30:03;12.20;;;7.23;;
14754;SDS011;7469;50.906;6.952;2024-01-30T13:32:34;9.77;;;6.50;;
14754;SDS011;7469;50.906;6.952;2024-01-30T13:35:02;14.17;;;6.97;;
14754;SDS011;7469;50.906;6.952;2024-01-30T13:37:31;12.27;;;6.43;;
14754;SDS011;7469;50.906;6.952;2024-01-30T13:40:00;11.40;;;6.90;;
14754;SDS011;7469;50.906;6.952;2024-01-30T13:42:32;11.60;;;6.63;;
14754;SDS011;7469;50.906;6.952;2024-01-30T13:45:00;11.47;;;6.87;;
14754;SDS011;7469;50.906;6.952;2024-01-30T13:47:28;11.87;;;6.20;;
14754;SDS011;7469;50.906;6.952;2024-01-30T13:49:56;11.00;;;6.63;;
14754;SDS011;7469;50.906;6.952;2024-01-30T13:52:24;12.40;;;6.97;;
14754;SDS011;7469;50.906;6.952;2024-01-30T13:55:05;12.30;;;6.90;;
14754;SDS011;7469;50.906;6.952;2024-01-30T13:57:33;15.90;;;6.97;;
14754;SDS011;7469;50.906;6.952;2024-01-30T14:00:02;16.37;;;7.33;;
14754;SDS011;7469;50.906;6.952;2024-01-30T14:02:33;11.27;;;7.00;;
14754;SDS011;7469;50.906;6.952;2024-01-30T14:05:02;17.67;;;7.17;;
14754;SDS011;7469;50.906;6.952;2024-01-30T14:07:31;17.77;;;7.00;;
14754;SDS011;7469;50.906;6.952;2024-01-30T14:09:59;12.80;;;6.03;;
14754;SDS011;7469;50.906;6.952;2024-01-30T14:12:31;12.10;;;6.07;;
14754;SDS011;7469;50.906;6.952;2024-01-30T14:14:59;12.57;;;6.83;;
14754;SDS011;7469;50.906;6.952;2024-01-30T14:17:32;10.80;;;5.80;;
14754;SDS011;7469;50.906;6.952;2024-01-30T14:20:00;9.50;;;6.00;;
14754;SDS011;7469;50.906;6.952;2024-01-30T14:22:29;12.03;;;6.47;;
14754;SDS011;7469;50.906;6.952;2024-01-30T14:24:57;13.70;;;6.13;;
14754;SDS011;7469;50.906;6.952;2024-01-30T14:27:25;9.77;;;6.20;;
14754;SDS011;7469;50.906;6.952;2024-01-30T14:29:55;11.53;;;5.97;;
14754;SDS011;7469;50.906;6.952;2024-01-30T14:32:23;11.63;;;6.20;;
14754;SDS011;7469;50.906;6.952;2024-01-30T14:34:51;9.13;;;6.00;;
14754;SDS011;7469;50.906;6.952;2024-01-30T14:37:19;12.30;;;6.23;;
14754;SDS011;7469;50.906;6.952;2024-01-30T14:39:48;10.63;;;5.53;;
14754;SDS011;7469;50.906;6.952;2024-01-30T14:42:16;10.80;;;5.60;;
14754;SDS011;7469;50.906;6.952;2024-01-30T14:44:44;7.07;;;4.67;;
14754;SDS011;7469;50.906;6.952;2024-01-30T14:47:13;7.87;;;5.00;;
14754;SDS011;7469;50.906;6.952;2024-01-30T14:49:42;6.93;;;4.50;;
14754;SDS011;7469;50.906;6.952;2024-01-30T14:52:10;10.00;;;5.47;;
14754;SDS011;7469;50.906;6.952;2024-01-30T14:54:38;7.70;;;5.07;;
14754;SDS011;7469;50.906;6.952;2024-01-30T14:57:06;10.30;;;4.83;;
14754;SDS011;7469;50.906;6.952;2024-01-30T14:59:35;9.53;;;5.30;;